createdAt,value
2022-10-24T00:01:18.452Z,9.38
2022-10-24T00:03:46.867Z,8.18
2022-10-24T00:06:14.289Z,7.57
2022-10-24T00:08:43.305Z,8.38
2022-10-24T00:11:22.215Z,8.40
2022-10-24T00:13:50.455Z,9.40
2022-10-24T00:16:18.197Z,8.20
2022-10-24T00:18:45.689Z,7.93
2022-10-24T00:21:13.038Z,7.13
2022-10-24T00:23:40.135Z,8.25
2022-10-24T00:26:07.619Z,7.55
2022-10-24T00:28:36.258Z,6.70
2022-10-24T00:31:06.778Z,6.72
2022-10-24T00:33:33.942Z,6.82
2022-10-24T00:36:00.926Z,7.95
2022-10-24T00:38:27.980Z,7.28
2022-10-24T00:40:54.939Z,5.60
2022-10-24T00:43:27.206Z,5.80
2022-10-24T00:45:59.589Z,5.30
2022-10-24T00:48:44.628Z,6.20
2022-10-24T00:51:24.939Z,6.63
2022-10-24T00:54:05.074Z,5.93
2022-10-24T00:56:36.276Z,5.07
2022-10-24T00:59:07.322Z,7.90
2022-10-24T01:01:36.056Z,5.63
2022-10-24T01:04:05.316Z,5.55
2022-10-24T01:06:50.303Z,7.93
2022-10-24T01:09:30.904Z,5.68
2022-10-24T01:16:49.944Z,5.55
2022-10-24T01:19:45.196Z,6.68
2022-10-24T01:22:25.173Z,7.03
2022-10-24T01:25:16.604Z,6.68
2022-10-24T01:28:09.099Z,8.18
2022-10-24T01:30:46.953Z,7.15
2022-10-24T01:33:24.593Z,7.15
2022-10-24T01:36:25.451Z,9.77
2022-10-24T01:38:58.149Z,9.43
2022-10-24T01:41:28.331Z,12.65
2022-10-24T01:44:21.766Z,9.52
2022-10-24T01:47:23.277Z,10.38
2022-10-24T01:50:00.267Z,12.05
2022-10-24T01:52:31.286Z,12.68
2022-10-24T01:55:01.651Z,9.82
2022-10-24T01:57:37.660Z,12.52
2022-10-24T02:11:07.410Z,10.93
2022-10-24T02:14:10.963Z,10.70
2022-10-24T02:16:39.027Z,8.90
2022-10-24T02:19:16.142Z,11.40
2022-10-24T02:22:25.509Z,9.18
2022-10-24T02:25:13.046Z,9.40
2022-10-24T02:28:10.910Z,9.38
2022-10-24T02:30:48.829Z,11.35
2022-10-24T02:33:19.490Z,10.95
2022-10-24T02:35:48.200Z,9.00
2022-10-24T02:38:25.691Z,9.85
2022-10-24T02:40:56.871Z,8.60
2022-10-24T02:43:27.514Z,10.50
2022-10-24T02:45:56.904Z,10.30
2022-10-24T02:48:37.951Z,8.73
2022-10-24T02:51:09.529Z,9.38
2022-10-24T02:53:38.316Z,9.05
2022-10-24T02:56:10.484Z,9.23
2022-10-24T02:58:46.328Z,8.95
2022-10-24T03:01:15.124Z,9.13
2022-10-24T03:03:44.409Z,10.40
2022-10-24T03:06:12.939Z,7.75
2022-10-24T03:08:40.345Z,9.15
2022-10-24T03:11:09.220Z,8.27
2022-10-24T03:13:38.223Z,7.07
2022-10-24T03:16:11.711Z,9.00
2022-10-24T03:18:43.669Z,8.93
2022-10-24T03:21:14.186Z,8.45
2022-10-24T03:23:41.791Z,8.80
2022-10-24T03:26:14.456Z,9.15
2022-10-24T03:28:44.232Z,9.05
2022-10-24T03:31:12.354Z,10.15
2022-10-24T03:33:42.143Z,11.23
2022-10-24T03:36:10.476Z,7.78
2022-10-24T03:38:38.675Z,7.60
2022-10-24T03:41:07.773Z,8.10
2022-10-24T03:43:38.038Z,7.07
2022-10-24T03:46:07.367Z,7.82
2022-10-24T03:48:35.399Z,7.32
2022-10-24T03:51:03.616Z,7.15
2022-10-24T03:53:32.376Z,12.27
2022-10-24T03:56:00.566Z,6.15
2022-10-24T03:58:36.363Z,7.80
2022-10-24T04:01:09.877Z,7.72
2022-10-24T04:03:41.217Z,6.95
2022-10-24T04:06:16.269Z,9.88
2022-10-24T04:08:47.045Z,7.47
2022-10-24T04:11:17.619Z,7.28
2022-10-24T04:13:47.085Z,8.52
2022-10-24T04:16:15.971Z,7.43
2022-10-24T04:18:45.893Z,6.30
2022-10-24T04:21:16.856Z,6.63
2022-10-24T04:23:55.538Z,8.23
2022-10-24T04:26:24.384Z,7.03
2022-10-24T04:28:54.589Z,5.68
2022-10-24T04:31:23.675Z,6.35
2022-10-24T04:33:53.873Z,6.07
2022-10-24T04:36:23.168Z,7.60
2022-10-24T04:38:53.875Z,6.18
2022-10-24T04:41:22.863Z,6.68
2022-10-24T04:43:51.860Z,6.47
2022-10-24T04:46:18.831Z,7.32
2022-10-24T04:48:47.948Z,6.65
2022-10-24T04:51:20.023Z,9.45
2022-10-24T04:53:54.411Z,7.10
2022-10-24T04:56:23.089Z,18.65
2022-10-24T05:02:43.046Z,8.27
2022-10-24T05:05:10.758Z,10.20
2022-10-24T05:07:38.327Z,10.55
2022-10-24T05:10:07.501Z,9.10
2022-10-24T05:12:34.633Z,10.10
2022-10-24T05:15:01.782Z,9.93
2022-10-24T05:17:28.682Z,12.00
2022-10-24T05:19:55.622Z,10.45
2022-10-24T05:22:24.035Z,10.07
2022-10-24T05:24:51.444Z,8.30
2022-10-24T05:27:24.877Z,8.77
2022-10-24T05:29:52.876Z,8.20
2022-10-24T05:32:21.639Z,7.90
2022-10-24T05:34:49.650Z,6.60
2022-10-24T05:37:17.529Z,10.43
2022-10-24T05:39:44.615Z,6.97
2022-10-24T05:42:11.827Z,7.57
2022-10-24T05:44:39.634Z,7.10
2022-10-24T05:47:07.025Z,7.55
2022-10-24T05:49:34.368Z,6.20
2022-10-24T05:52:01.915Z,11.70
2022-10-24T05:54:37.577Z,7.25
2022-10-24T05:57:15.670Z,10.43
2022-10-24T05:59:43.215Z,10.45
2022-10-24T06:02:21.390Z,7.25
2022-10-24T06:04:50.731Z,7.05
2022-10-24T06:07:19.156Z,7.63
2022-10-24T06:09:46.219Z,7.68
2022-10-24T06:12:13.935Z,8.05
2022-10-24T06:14:41.325Z,6.40
2022-10-24T06:17:12.162Z,9.07
2022-10-24T06:19:40.510Z,7.28
2022-10-24T06:22:08.654Z,10.27
2022-10-24T06:24:38.116Z,6.53
2022-10-24T06:27:06.204Z,10.32
2022-10-24T06:29:33.789Z,7.07
2022-10-24T06:32:00.833Z,6.88
2022-10-24T06:34:28.037Z,7.68
2022-10-24T06:36:55.705Z,7.97
2022-10-24T06:39:22.842Z,7.13
2022-10-24T06:41:50.470Z,4.60
2022-10-24T06:44:18.191Z,6.10
2022-10-24T06:46:46.045Z,8.20
2022-10-24T06:49:14.282Z,7.82
2022-10-24T06:51:41.810Z,6.65
2022-10-24T06:54:09.022Z,5.40
2022-10-24T06:56:36.051Z,7.05
2022-10-24T06:59:03.059Z,8.05
2022-10-24T07:01:31.651Z,6.50
2022-10-24T07:03:58.733Z,8.43
2022-10-24T07:06:29.198Z,6.43
2022-10-24T07:08:59.379Z,7.20
2022-10-24T07:11:27.681Z,5.50
2022-10-24T07:13:57.940Z,5.60
2022-10-24T07:16:29.806Z,7.13
2022-10-24T07:18:58.451Z,8.73
2022-10-24T07:21:28.653Z,6.68
2022-10-24T07:23:57.812Z,8.05
2022-10-24T07:26:27.707Z,7.50
2022-10-24T07:28:56.651Z,8.45
2022-10-24T07:31:26.740Z,5.28
2022-10-24T07:33:54.045Z,6.93
2022-10-24T07:36:23.596Z,9.10
2022-10-24T07:38:52.757Z,10.85
2022-10-24T07:41:20.712Z,7.25
2022-10-24T07:43:48.300Z,9.68
2022-10-24T07:46:17.280Z,6.35
2022-10-24T07:48:44.581Z,5.75
2022-10-24T07:51:15.283Z,7.85
2022-10-24T07:53:43.414Z,6.90
2022-10-24T07:56:15.799Z,7.40
2022-10-24T07:58:44.327Z,5.80
2022-10-24T08:01:15.047Z,5.70
2022-10-24T08:03:42.704Z,7.22
2022-10-24T08:06:12.806Z,7.13
2022-10-24T08:08:40.656Z,7.70
2022-10-24T08:11:17.092Z,6.00
2022-10-24T08:13:44.438Z,6.07
2022-10-24T08:16:13.413Z,6.68
2022-10-24T08:18:40.411Z,5.05
2022-10-24T08:21:13.726Z,6.07
2022-10-24T08:23:43.715Z,9.27
2022-10-24T08:26:14.384Z,5.32
2022-10-24T08:28:42.498Z,10.65
2022-10-24T08:31:13.983Z,5.70
2022-10-24T08:33:41.945Z,7.85
2022-10-24T08:36:35.803Z,7.82
2022-10-24T08:39:03.635Z,7.50
2022-10-24T08:41:33.353Z,6.07
2022-10-24T08:44:03.326Z,6.90
2022-10-24T08:46:49.073Z,6.63
2022-10-24T08:49:39.622Z,7.15
2022-10-24T08:52:23.654Z,8.77
2022-10-24T08:54:52.604Z,9.80
2022-10-24T08:57:30.864Z,5.18
2022-10-24T09:00:02.378Z,6.38
2022-10-24T09:02:37.889Z,5.68
2022-10-24T09:05:18.308Z,7.63
2022-10-24T09:07:47.770Z,6.40
2022-10-24T09:10:24.536Z,5.65
2022-10-24T09:12:52.759Z,6.68
2022-10-24T09:15:30.870Z,7.97
2022-10-24T09:17:59.122Z,7.15
2022-10-24T09:20:33.410Z,5.32
2022-10-24T09:23:05.091Z,6.90
2022-10-24T09:25:35.379Z,8.93
2022-10-24T09:28:05.334Z,4.90
2022-10-24T09:30:33.530Z,6.45
2022-10-24T09:33:25.688Z,8.07
2022-10-24T09:35:55.607Z,5.78
2022-10-24T09:38:37.246Z,9.30
2022-10-24T09:41:08.320Z,6.70
2022-10-24T09:43:56.341Z,6.45
2022-10-24T09:46:26.152Z,6.60
2022-10-24T09:49:01.561Z,4.93
2022-10-24T09:54:26.724Z,5.50
2022-10-24T09:59:46.019Z,4.80
2022-10-24T10:02:23.323Z,7.30
2022-10-24T10:05:03.671Z,7.93
2022-10-24T10:07:32.458Z,4.38
2022-10-24T10:10:05.284Z,7.10
2022-10-24T10:12:38.110Z,6.13
2022-10-24T10:15:46.033Z,4.97
2022-10-24T10:18:25.246Z,7.20
2022-10-24T10:21:04.033Z,4.20
2022-10-24T10:23:50.243Z,5.18
2022-10-24T10:26:42.529Z,6.28
2022-10-24T10:29:19.235Z,6.40
2022-10-24T10:32:07.145Z,6.28
2022-10-24T10:35:12.564Z,9.68
2022-10-24T10:37:59.846Z,5.32
2022-10-24T10:40:44.783Z,7.55
2022-10-24T10:43:36.232Z,5.78
2022-10-24T10:46:08.165Z,5.85
2022-10-24T10:48:36.434Z,4.97
2022-10-24T10:51:08.319Z,7.47
2022-10-24T10:53:57.522Z,6.25
2022-10-24T10:56:30.677Z,5.85
2022-10-24T10:59:34.382Z,6.22
2022-10-24T11:02:25.774Z,5.60
2022-10-24T11:05:24.234Z,6.40
2022-10-24T11:08:24.185Z,5.85
2022-10-24T11:11:01.747Z,5.30
2022-10-24T11:13:34.464Z,7.05
2022-10-24T11:16:05.871Z,5.75
2022-10-24T11:18:36.296Z,6.07
2022-10-24T11:21:13.016Z,5.25
2022-10-24T11:23:57.911Z,8.27
2022-10-24T11:26:26.907Z,4.85
2022-10-24T11:29:08.889Z,4.93
2022-10-24T11:31:59.111Z,5.47
2022-10-24T11:34:51.297Z,6.45
2022-10-24T11:37:24.464Z,5.60
2022-10-24T11:40:03.602Z,5.60
2022-10-24T11:42:50.516Z,7.95
2022-10-24T11:45:25.102Z,5.85
2022-10-24T11:48:28.761Z,4.88
2022-10-24T11:51:09.344Z,7.95
2022-10-24T11:53:38.479Z,6.00
2022-10-24T11:56:27.130Z,6.00
2022-10-24T11:59:04.049Z,6.65
2022-10-24T12:01:51.527Z,5.07
2022-10-24T12:04:56.799Z,5.55
2022-10-24T12:07:35.952Z,4.07
2022-10-24T12:10:15.101Z,3.15
2022-10-24T12:13:08.163Z,4.85
2022-10-24T12:15:59.789Z,7.32
2022-10-24T12:18:34.466Z,4.45
2022-10-24T12:21:08.634Z,3.37
2022-10-24T12:23:35.800Z,6.05
2022-10-24T12:26:05.912Z,7.88
2022-10-24T12:28:33.688Z,4.32
2022-10-24T12:31:16.030Z,5.60
2022-10-24T12:33:44.658Z,3.22
2022-10-24T12:36:12.317Z,4.20
2022-10-24T12:38:39.799Z,6.28
2022-10-24T12:41:32.974Z,10.00
2022-10-24T12:44:39.177Z,7.47
2022-10-24T12:47:31.380Z,5.90
2022-10-24T12:50:20.477Z,7.68
2022-10-24T12:52:48.397Z,12.20
2022-10-24T12:55:39.617Z,9.52
2022-10-24T12:58:36.165Z,24.05
2022-10-24T13:04:05.688Z,22.98
2022-10-24T13:06:51.573Z,25.83
2022-10-24T13:12:10.655Z,17.35
2022-10-24T13:15:00.641Z,7.63
2022-10-24T13:17:33.571Z,4.43
2022-10-24T13:20:21.939Z,2.53
2022-10-24T13:22:51.221Z,3.83
2022-10-24T13:25:33.938Z,3.60
2022-10-24T13:28:20.058Z,2.13
2022-10-24T13:31:07.683Z,2.67
2022-10-24T13:33:36.489Z,2.58
2022-10-24T13:36:14.882Z,1.42
2022-10-24T13:38:51.239Z,2.08
2022-10-24T13:41:49.699Z,2.78
2022-10-24T13:44:49.791Z,3.35
2022-10-24T13:47:32.295Z,3.47
2022-10-24T13:50:21.649Z,1.02
2022-10-24T13:52:57.967Z,2.88
2022-10-24T13:55:35.536Z,1.23
2022-10-24T13:58:05.940Z,3.33
2022-10-24T14:00:38.018Z,2.15
2022-10-24T14:03:12.956Z,1.63
2022-10-24T14:05:49.249Z,1.63
2022-10-24T14:08:27.154Z,4.80
2022-10-24T14:10:55.462Z,5.57
2022-10-24T14:13:25.017Z,74.32
2022-10-24T14:16:04.533Z,121.88
2022-10-24T14:18:32.966Z,100.05
2022-10-24T14:21:02.189Z,215.30
2022-10-24T14:23:39.255Z,252.10
2022-10-24T14:26:19.867Z,179.93
2022-10-24T14:28:58.824Z,126.13
2022-10-24T14:31:38.516Z,77.03
2022-10-24T14:34:09.629Z,79.85
2022-10-24T14:36:39.357Z,71.13
2022-10-24T14:39:06.846Z,119.00
2022-10-24T14:41:40.156Z,130.77
2022-10-24T14:44:08.248Z,120.43
2022-10-24T14:46:40.590Z,70.88
2022-10-24T14:49:21.508Z,62.53
2022-10-24T14:54:32.281Z,144.02
2022-10-24T14:57:02.185Z,226.00
2022-10-24T14:59:39.596Z,130.02
2022-10-24T15:02:21.232Z,175.07
2022-10-24T15:04:50.450Z,365.55
2022-10-24T15:07:23.589Z,296.65
2022-10-24T15:10:00.143Z,323.23
2022-10-24T15:12:33.009Z,227.38
2022-10-24T15:15:22.769Z,161.45
2022-10-24T15:18:16.202Z,183.68
2022-10-24T15:20:47.028Z,270.92
2022-10-24T15:23:35.971Z,117.53
2022-10-24T15:26:11.631Z,49.60
2022-10-24T15:28:55.952Z,55.05
2022-10-24T15:31:27.614Z,72.95
2022-10-24T15:33:55.851Z,65.85
2022-10-24T15:36:31.968Z,101.43
2022-10-24T15:39:05.492Z,229.77
2022-10-24T15:41:32.753Z,112.53
2022-10-24T15:44:00.730Z,161.77
2022-10-24T15:46:28.547Z,315.15
2022-10-24T15:48:55.669Z,252.93
2022-10-24T15:51:24.965Z,290.15
2022-10-24T15:53:53.832Z,77.03
2022-10-24T15:56:21.071Z,177.52
2022-10-24T15:58:51.266Z,96.15
2022-10-24T16:01:28.634Z,65.22
2022-10-24T16:03:57.428Z,117.18
2022-10-24T16:06:25.284Z,145.18
2022-10-24T16:08:53.268Z,149.70
2022-10-24T16:11:20.940Z,93.25
2022-10-24T16:13:48.515Z,153.60
2022-10-24T16:16:15.681Z,50.35
2022-10-24T16:18:45.080Z,76.70
2022-10-24T16:21:19.155Z,109.38
2022-10-24T16:23:48.846Z,140.65
2022-10-24T16:26:18.158Z,71.32
2022-10-24T16:28:45.194Z,105.50
2022-10-24T16:31:23.600Z,74.97
2022-10-24T16:33:52.649Z,289.70
2022-10-24T16:36:24.562Z,220.77
2022-10-24T16:38:52.773Z,237.43
2022-10-24T16:41:25.116Z,525.72
2022-10-24T16:44:00.817Z,394.40
2022-10-24T16:46:31.893Z,393.63
2022-10-24T16:49:02.617Z,182.55
2022-10-24T16:51:32.552Z,208.07
2022-10-24T16:54:02.648Z,232.88
2022-10-24T16:56:31.083Z,184.18
2022-10-24T16:58:58.407Z,163.38
2022-10-24T17:01:29.768Z,773.80
2022-10-24T17:03:58.073Z,396.60
2022-10-24T17:06:25.619Z,282.27
2022-10-24T17:08:52.852Z,260.17
2022-10-24T17:11:43.778Z,241.50
2022-10-24T17:14:12.352Z,294.30
2022-10-24T17:16:41.263Z,422.20
2022-10-24T17:19:17.500Z,193.05
2022-10-24T17:21:48.096Z,372.25
2022-10-24T17:24:21.694Z,261.75
2022-10-24T17:26:50.889Z,258.95
2022-10-24T17:29:47.642Z,229.32
2022-10-24T17:32:22.215Z,217.70
2022-10-24T17:35:00.910Z,180.20
2022-10-24T17:37:52.284Z,195.00
2022-10-24T17:40:25.267Z,431.17
2022-10-24T17:42:53.213Z,536.38
2022-10-24T17:45:32.675Z,313.13
2022-10-24T17:48:02.065Z,177.90
2022-10-24T17:50:29.792Z,194.32
2022-10-24T17:52:59.078Z,128.50
2022-10-24T17:55:46.714Z,298.05
2022-10-24T17:58:17.031Z,92.60
2022-10-24T18:00:45.079Z,188.25
2022-10-24T18:03:15.349Z,223.43
2022-10-24T18:05:42.977Z,257.92
2022-10-24T18:08:15.028Z,131.02
2022-10-24T18:10:42.854Z,57.42
2022-10-24T18:13:10.206Z,146.13
2022-10-24T18:15:40.862Z,227.57
2022-10-24T18:18:08.551Z,73.22
2022-10-24T18:20:35.835Z,44.92
2022-10-24T18:23:04.752Z,124.35
2022-10-24T18:25:32.162Z,97.07
2022-10-24T18:27:59.146Z,31.17
2022-10-24T18:30:27.559Z,26.60
2022-10-24T18:32:54.643Z,37.13
2022-10-24T18:35:23.464Z,60.63
2022-10-24T18:40:19.766Z,95.65
2022-10-24T18:42:57.917Z,145.93
2022-10-24T18:45:28.226Z,159.13
2022-10-24T18:47:56.840Z,499.67
2022-10-24T18:50:26.171Z,160.48
2022-10-24T18:52:53.412Z,112.15
2022-10-24T18:55:43.681Z,98.38
2022-10-24T18:58:19.705Z,108.82
2022-10-24T19:00:48.120Z,55.58
2022-10-24T19:03:36.975Z,232.07
2022-10-24T19:06:28.040Z,38.22
2022-10-24T19:08:55.191Z,17.45
2022-10-24T19:11:24.388Z,11.05
2022-10-24T19:13:51.409Z,7.78
2022-10-24T19:16:27.471Z,16.02
2022-10-24T19:19:00.414Z,5.47
2022-10-24T19:21:28.522Z,5.82
2022-10-24T19:23:55.839Z,3.45
2022-10-24T19:26:22.907Z,5.47
2022-10-24T19:28:50.102Z,2.45
2022-10-24T19:31:17.173Z,4.68
2022-10-24T19:33:45.005Z,8.18
2022-10-24T19:36:14.502Z,5.72
2022-10-24T19:38:45.477Z,5.28
2022-10-24T19:41:12.549Z,6.60
2022-10-24T19:43:39.723Z,5.68
2022-10-24T19:46:19.383Z,6.70
2022-10-24T19:48:53.318Z,4.03
2022-10-24T19:51:21.300Z,10.20
2022-10-24T19:53:49.718Z,7.43
2022-10-24T19:56:26.343Z,9.88
2022-10-24T19:58:54.674Z,7.03
2022-10-24T20:01:24.617Z,7.55
2022-10-24T20:03:52.581Z,6.43
2022-10-24T20:06:19.907Z,5.35
2022-10-24T20:08:48.606Z,7.03
2022-10-24T20:11:16.559Z,3.47
2022-10-24T20:13:44.114Z,5.35
2022-10-24T20:16:11.946Z,5.53
2022-10-24T20:21:10.299Z,4.68
2022-10-24T20:23:37.989Z,5.95
2022-10-24T20:26:11.144Z,5.97
2022-10-24T20:28:45.767Z,4.78
2022-10-24T20:31:32.293Z,7.38
2022-10-24T20:34:06.732Z,3.67
2022-10-24T20:36:38.621Z,5.95
2022-10-24T20:39:07.297Z,3.95
2022-10-24T20:41:34.665Z,5.38
2022-10-24T20:44:02.686Z,3.97
2022-10-24T20:46:31.307Z,4.72
2022-10-24T20:48:58.522Z,6.05
2022-10-24T20:51:25.756Z,6.22
2022-10-24T20:53:54.771Z,6.43
2022-10-24T20:56:26.227Z,3.70
2022-10-24T20:58:55.521Z,4.85
2022-10-24T21:01:25.294Z,4.03
2022-10-24T21:03:53.124Z,4.35
2022-10-24T21:06:26.083Z,3.95
2022-10-24T21:08:55.850Z,6.00
2022-10-24T21:11:26.356Z,5.57
2022-10-24T21:14:00.948Z,8.18
2022-10-24T21:16:28.781Z,2.58
2022-10-24T21:18:56.771Z,5.93
2022-10-24T21:21:25.185Z,6.75
2022-10-24T21:24:03.883Z,4.18
2022-10-24T21:26:38.357Z,6.05
2022-10-24T21:29:31.234Z,4.13
2022-10-24T21:31:53.444Z,7.45
2022-10-24T21:34:20.843Z,5.43
2022-10-24T21:36:47.960Z,4.13
2022-10-24T21:39:16.567Z,4.15
2022-10-24T21:41:44.787Z,7.05
2022-10-24T21:44:12.909Z,4.50
2022-10-24T21:46:40.586Z,33.00
2022-10-24T21:49:07.655Z,17.90
2022-10-24T21:51:36.650Z,8.63
2022-10-24T21:54:06.646Z,7.70
2022-10-24T21:56:39.406Z,4.28
2022-10-24T21:59:10.954Z,3.78
2022-10-24T22:01:38.487Z,5.68
2022-10-24T22:04:07.182Z,5.63
2022-10-24T22:06:35.746Z,3.78
2022-10-24T22:09:07.910Z,2.90
2022-10-24T22:11:36.353Z,5.15
2022-10-24T22:14:04.698Z,3.80
2022-10-24T22:16:32.632Z,4.43
2022-10-24T22:19:03.536Z,4.13
2022-10-24T22:21:33.350Z,4.53
2022-10-24T22:24:14.007Z,6.18
2022-10-24T22:26:42.077Z,3.45
2022-10-24T22:29:12.574Z,4.43
2022-10-24T22:31:40.225Z,2.92
2022-10-24T22:34:07.907Z,2.90
2022-10-24T22:37:06.276Z,3.30
2022-10-24T22:39:33.622Z,2.67
2022-10-24T22:42:00.958Z,3.45
2022-10-24T22:44:28.335Z,3.90
2022-10-24T22:47:26.502Z,5.25
2022-10-24T22:50:33.487Z,3.33
2022-10-24T22:56:02.130Z,4.75
2022-10-24T22:58:30.410Z,7.13
2022-10-24T23:01:23.123Z,4.28
2022-10-24T23:04:41.269Z,3.88
2022-10-24T23:07:30.354Z,3.50
2022-10-24T23:09:57.480Z,3.60
2022-10-24T23:12:25.543Z,4.43
2022-10-24T23:14:53.691Z,2.50
2022-10-24T23:17:26.819Z,7.55
2022-10-24T23:19:55.606Z,4.75
2022-10-24T23:22:27.262Z,4.43
2022-10-24T23:24:57.010Z,3.33
2022-10-24T23:27:39.569Z,3.95
2022-10-24T23:30:22.716Z,4.65
2022-10-24T23:32:50.720Z,2.20
2022-10-24T23:35:19.710Z,3.50
2022-10-24T23:37:51.920Z,6.47
2022-10-24T23:40:29.338Z,5.50
2022-10-24T23:42:57.120Z,5.18
2022-10-24T23:45:27.669Z,5.13
2022-10-24T23:48:30.340Z,2.70
2022-10-24T23:51:06.729Z,3.72
2022-10-24T23:53:50.690Z,4.20
2022-10-24T23:56:21.545Z,5.10
2022-10-24T23:58:49.426Z,3.53
